Aviation Digital Data Service (ADDS)

Output produced by METARs form (0955 UTC 19 November 2018)
found at http://www.aviationweather.gov/metar/data/
 
RJOC 190900Z 34012KT 9999 FEW020 BKN060 12/07 Q1019
TAF RJOC 190505Z 1906/2012 35007KT 9999 FEW025 BKN050 
     BECMG 1913/1915 17005KT 
     BECMG 2000/2003 29010KT 
     BECMG 2009/2012 17006KT